Castro Verd, Portugal
Current Conditions -  °F | °C
As of 5:00 AM on Wednesday 26 Nov 2014 (Local Time) from LPBJ Reporting Station
Moderate Fog Moderate Fog  
Wind Chill:   Ceiling: Unl
Heat Index:   Visibility: 5mi
Dew Point:   Wind: 3mph
Humidity: 100%   Direction: 180°S
Pressure: 29.97"   Gusts: NA
Location:  37.7°N, 8.08°W
Report Text: LPBJ 260500Z 18003KT 8000 VCFG FEW021 07/07 Q1015
Loading
Personal Weather Stations






























Interactive Weather Map New forecast layout! Learn more

10-Day Weather Forecast

Advertisements
Track Severe Weather on mobile